Terminal Aerodrome Forecast
Issued by NWS Shreveport, LA

Home | Current Version | Previous Version | Text Only | Print | Product List | Glossary On
Versions: 1 2 3 4 5 6 7 8 9 10 11 12 13 14 15
000
FTUS44 KSHV 312328
TAFTXK
TAF
KTXK 312328Z 0100/0124 04005KT P6SM FEW250
     FM010600 04003KT 5SM BR SCT250
     FM011400 04007KT P6SM SCT040 BKN250
     FM011700 04008KT P6SM VCTS BKN045CB BKN150 OVC250=

USA.gov is the U.S. government's official web portal to all federal, state and local government web resources and services.